createdAt,value
2022-09-26T00:00:53.433Z,100795.63
2022-09-26T00:03:21.120Z,100799.16
2022-09-26T00:05:48.729Z,100797.38
2022-09-26T00:08:16.392Z,100783.94
2022-09-26T00:10:44.053Z,100779.47
2022-09-26T00:13:13.075Z,100772.28
2022-09-26T00:15:40.700Z,100766.94
2022-09-26T00:18:08.329Z,100766.97
2022-09-26T00:20:37.974Z,100754.50
2022-09-26T00:23:05.594Z,100757.19
2022-09-26T00:25:33.250Z,100751.84
2022-09-26T00:28:00.862Z,100748.22
2022-09-26T00:30:29.910Z,100742.88
2022-09-26T00:32:57.599Z,100732.13
2022-09-26T00:35:25.228Z,100734.78
2022-09-26T00:37:52.884Z,100723.19
2022-09-26T00:40:20.610Z,100723.22
2022-09-26T00:42:48.279Z,100711.63
2022-09-26T00:45:15.943Z,100716.13
2022-09-26T00:47:47.348Z,100708.13
2022-09-26T00:50:22.727Z,100708.94
2022-09-26T00:52:53.828Z,100703.56
2022-09-26T00:55:24.966Z,100705.34
2022-09-26T00:57:57.369Z,100700.91
2022-09-26T01:00:25.135Z,100698.25
2022-09-26T01:02:54.649Z,100691.09
2022-09-26T01:05:24.204Z,100689.28
2022-09-26T01:07:54.578Z,100689.25
2022-09-26T01:10:24.138Z,100683.00
2022-09-26T01:12:52.240Z,100674.06
2022-09-26T01:15:20.267Z,100670.44
2022-09-26T01:17:48.250Z,100657.88
2022-09-26T01:20:29.003Z,100662.34
2022-09-26T01:23:48.529Z,100656.94
2022-09-26T01:26:35.854Z,100653.38
2022-09-26T01:29:39.027Z,100655.16
2022-09-26T01:32:38.497Z,100648.91
2022-09-26T01:35:13.290Z,100649.75
2022-09-26T01:37:49.278Z,100648.00
2022-09-26T01:40:24.496Z,100651.50
2022-09-26T01:43:05.136Z,100646.19
2022-09-26T01:45:43.773Z,100640.88
2022-09-26T01:48:18.547Z,100640.91
2022-09-26T01:50:51.274Z,100632.91
2022-09-26T01:53:23.922Z,100630.28
2022-09-26T01:55:55.711Z,100626.69
2022-09-26T01:58:28.614Z,100623.13
2022-09-26T02:01:02.255Z,100620.41
2022-09-26T02:03:37.572Z,100608.84
2022-09-26T02:06:09.536Z,100606.16
2022-09-26T02:08:41.745Z,100606.22
2022-09-26T02:11:13.635Z,100600.00
2022-09-26T02:13:48.371Z,100597.41
2022-09-26T02:16:22.110Z,100591.19
2022-09-26T02:18:55.651Z,100590.34
2022-09-26T02:21:24.430Z,100584.09
2022-09-26T02:23:54.330Z,100578.72
2022-09-26T02:26:22.263Z,100571.59
2022-09-26T02:28:50.146Z,100557.28
2022-09-26T02:31:22.983Z,100557.28
2022-09-26T02:33:53.590Z,100551.88
2022-09-26T02:36:23.181Z,100547.41
2022-09-26T02:38:50.807Z,100542.03
2022-09-26T02:41:29.526Z,100536.66
2022-09-26T02:44:12.644Z,100527.69
2022-09-26T02:47:16.952Z,100516.03
2022-09-26T02:50:04.678Z,100517.81
2022-09-26T02:52:41.640Z,100506.13
2022-09-26T02:55:22.198Z,100499.88
2022-09-26T02:58:03.891Z,100493.59
2022-09-26T03:00:49.197Z,100495.38
2022-09-26T03:03:24.191Z,100489.03
2022-09-26T03:05:57.927Z,100482.75
2022-09-26T03:08:27.997Z,100481.84
2022-09-26T03:10:59.662Z,100476.50
2022-09-26T03:13:28.804Z,100468.44
2022-09-26T03:15:59.704Z,100463.91
2022-09-26T03:18:32.612Z,100464.78
2022-09-26T03:21:01.823Z,100453.16
2022-09-26T03:23:30.256Z,100456.69
2022-09-26T03:26:01.423Z,100447.75
2022-09-26T03:28:32.770Z,100451.28
2022-09-26T03:31:03.119Z,100447.66
2022-09-26T03:33:30.849Z,100444.94
2022-09-26T03:36:00.435Z,100437.81
2022-09-26T03:38:29.377Z,100436.91
2022-09-26T03:40:59.097Z,100432.50
2022-09-26T03:43:26.786Z,100434.34
2022-09-26T03:45:55.017Z,100426.38
2022-09-26T03:48:22.712Z,100429.03
2022-09-26T03:50:50.331Z,100429.94
2022-09-26T03:53:18.814Z,100420.19
2022-09-26T03:55:47.833Z,100416.56
2022-09-26T03:58:15.465Z,100413.00
2022-09-26T04:00:43.290Z,100412.09
2022-09-26T04:03:10.993Z,100403.16
2022-09-26T04:05:38.969Z,100401.38
2022-09-26T04:08:06.566Z,100400.56
2022-09-26T04:10:34.260Z,100394.31
2022-09-26T04:13:03.389Z,100395.22
2022-09-26T04:15:31.427Z,100389.91
2022-09-26T04:17:59.007Z,100382.81
2022-09-26T04:20:26.689Z,100381.94
2022-09-26T04:22:55.091Z,100378.34
2022-09-26T04:25:22.726Z,100369.38
2022-09-26T04:27:50.352Z,100367.66
2022-09-26T04:30:19.483Z,100362.28
2022-09-26T04:32:47.668Z,100359.66
2022-09-26T04:35:15.427Z,100364.09
2022-09-26T04:37:43.203Z,100350.75
2022-09-26T04:40:11.598Z,100348.97
2022-09-26T04:42:41.422Z,100340.84
2022-09-26T04:45:09.815Z,100335.53
2022-09-26T04:47:38.796Z,100331.09
2022-09-26T04:50:06.929Z,100325.75
2022-09-26T04:52:34.544Z,100316.84
2022-09-26T04:55:02.187Z,100315.06
2022-09-26T04:57:29.787Z,100315.97
2022-09-26T04:59:57.446Z,100312.41
2022-09-26T05:02:25.096Z,100303.44
2022-09-26T05:04:55.108Z,100299.00
2022-09-26T05:07:22.733Z,100291.81
2022-09-26T05:09:50.504Z,100290.00
2022-09-26T05:12:18.605Z,100288.28
2022-09-26T05:14:46.217Z,100278.50
2022-09-26T05:17:14.095Z,100274.88
2022-09-26T05:19:42.985Z,100268.56
2022-09-26T05:22:12.031Z,100267.63
2022-09-26T05:24:57.452Z,100267.59
2022-09-26T05:27:25.208Z,100268.44
2022-09-26T05:29:55.403Z,100258.63
2022-09-26T05:32:23.010Z,100263.16
2022-09-26T05:34:51.016Z,100263.13
2022-09-26T05:37:20.007Z,100261.31
2022-09-26T05:40:05.458Z,100263.00
2022-09-26T05:42:49.633Z,100248.69
2022-09-26T05:45:17.370Z,100249.56
2022-09-26T05:47:45.137Z,100250.47
2022-09-26T05:50:12.795Z,100250.41
2022-09-26T05:52:41.782Z,100252.28
2022-09-26T05:55:11.835Z,100255.75
2022-09-26T05:57:39.486Z,100243.19
2022-09-26T06:00:08.853Z,100238.63
2022-09-26T06:02:36.513Z,100251.06
2022-09-26T06:05:04.552Z,100235.78
2022-09-26T06:07:33.445Z,100228.72
2022-09-26T06:10:02.626Z,100226.03
2022-09-26T06:12:30.261Z,100220.59
2022-09-26T06:14:57.938Z,100211.66
2022-09-26T06:17:26.409Z,100218.69
2022-09-26T06:19:54.058Z,100207.00
2022-09-26T06:22:21.708Z,100199.84
2022-09-26T06:24:49.341Z,100197.09
2022-09-26T06:27:18.368Z,100192.63
2022-09-26T06:29:46.023Z,100198.00
2022-09-26T06:32:13.612Z,100187.28
2022-09-26T06:34:41.285Z,100184.47
2022-09-26T06:37:08.902Z,100180.63
2022-09-26T06:39:37.022Z,100179.81
2022-09-26T06:42:05.675Z,100184.22
2022-09-26T06:44:34.869Z,100162.72
2022-09-26T06:47:02.594Z,100162.72
2022-09-26T06:49:30.264Z,100167.06
2022-09-26T06:51:57.961Z,100162.53
2022-09-26T06:54:25.592Z,100153.63
2022-09-26T06:56:53.901Z,100154.47
2022-09-26T06:59:22.907Z,100148.28
2022-09-26T07:01:51.929Z,100145.66
2022-09-26T07:04:19.660Z,100141.22
2022-09-26T07:06:47.338Z,100142.13
2022-09-26T07:09:15.260Z,100142.06
2022-09-26T07:12:12.953Z,100132.19
2022-09-26T07:14:34.311Z,100128.66
2022-09-26T07:17:03.506Z,100119.72
2022-09-26T07:19:31.176Z,100111.56
2022-09-26T07:21:58.941Z,100112.47
2022-09-26T07:24:27.243Z,100094.78
2022-09-26T07:26:54.880Z,100106.19
2022-09-26T07:29:22.491Z,100108.13
2022-09-26T07:31:50.204Z,100102.81
2022-09-26T07:34:19.273Z,100097.44
2022-09-26T07:36:47.463Z,100097.44
2022-09-26T07:39:15.331Z,100103.72
2022-09-26T07:41:45.945Z,100108.19
2022-09-26T07:47:31.155Z,100094.91
2022-09-26T07:50:22.878Z,100102.97
2022-09-26T07:52:52.303Z,100097.50
2022-09-26T07:55:21.821Z,100088.63
2022-09-26T07:57:49.997Z,100085.81
2022-09-26T08:00:19.558Z,100085.00
2022-09-26T08:02:47.620Z,100085.81
2022-09-26T08:05:20.141Z,100077.81
2022-09-26T08:07:49.627Z,100071.69
2022-09-26T08:10:20.013Z,100069.13
2022-09-26T08:12:47.710Z,100068.16
2022-09-26T08:15:16.247Z,100069.22
2022-09-26T08:17:44.456Z,100057.53
2022-09-26T08:20:12.777Z,100061.13
2022-09-26T08:22:41.808Z,100075.31
2022-09-26T08:25:10.505Z,100066.44
2022-09-26T08:27:38.267Z,100065.56
2022-09-26T08:30:07.656Z,100051.34
2022-09-26T08:32:35.390Z,100054.88
2022-09-26T08:35:03.128Z,100054.75
2022-09-26T08:37:31.124Z,100042.44
2022-09-26T08:40:01.020Z,100046.84
2022-09-26T08:42:41.841Z,100043.31
2022-09-26T08:45:57.451Z,100043.16
2022-09-26T08:48:40.000Z,100040.38
2022-09-26T08:51:13.753Z,100043.00
2022-09-26T08:53:49.756Z,100048.41
2022-09-26T08:56:22.247Z,100040.31
2022-09-26T08:58:52.293Z,100043.88
2022-09-26T09:01:27.402Z,100042.91
2022-09-26T09:04:02.198Z,100039.25
2022-09-26T09:06:30.166Z,100036.47
2022-09-26T09:08:59.032Z,100024.72
2022-09-26T09:12:02.482Z,100031.69
2022-09-26T09:14:43.306Z,100018.22
2022-09-26T09:17:22.905Z,100021.81
2022-09-26T09:20:00.215Z,100018.16
2022-09-26T09:22:44.982Z,100007.28
2022-09-26T09:25:17.464Z,100008.34
2022-09-26T09:28:01.235Z,100000.47
2022-09-26T09:30:41.232Z,100004.00
2022-09-26T09:33:14.584Z,100000.47
2022-09-26T09:35:46.112Z,99988.88
2022-09-26T09:38:17.394Z,99995.91
2022-09-26T09:40:52.686Z,99980.56
2022-09-26T09:43:27.908Z,99979.69
2022-09-26T09:46:02.615Z,99963.78
2022-09-26T09:48:31.031Z,99970.28
2022-09-26T09:51:17.344Z,99956.84
2022-09-26T09:54:00.501Z,99964.00
2022-09-26T09:56:39.253Z,99934.78
2022-09-26T09:59:23.463Z,99934.50
2022-09-26T10:02:01.114Z,99944.38
2022-09-26T10:04:40.743Z,99936.16
2022-09-26T10:07:29.156Z,99928.72
2022-09-26T10:09:59.565Z,99931.19
2022-09-26T10:12:44.027Z,99926.56
2022-09-26T10:15:36.850Z,99923.88
2022-09-26T10:20:57.349Z,99914.69
2022-09-26T10:23:31.570Z,99910.13
2022-09-26T10:26:03.179Z,99898.38
2022-09-26T10:28:35.850Z,99905.31
2022-09-26T10:31:08.798Z,99899.69
2022-09-26T10:33:38.664Z,99893.81
2022-09-26T10:36:20.646Z,99889.78
2022-09-26T10:39:11.590Z,99884.91
2022-09-26T10:41:41.669Z,99867.56
2022-09-26T10:44:23.625Z,99872.75
2022-09-26T10:46:56.463Z,99865.53
2022-09-26T10:49:30.922Z,99860.09
2022-09-26T10:52:11.691Z,99850.94
2022-09-26T10:54:47.362Z,99846.03
2022-09-26T10:57:28.081Z,99843.84
2022-09-26T10:59:59.411Z,99845.25
2022-09-26T11:02:29.635Z,99838.56
2022-09-26T11:05:18.068Z,99837.38
2022-09-26T11:07:49.535Z,99835.31
2022-09-26T11:10:24.334Z,99830.38
2022-09-26T11:13:02.278Z,99818.22
2022-09-26T11:15:30.664Z,99824.88
2022-09-26T11:17:59.940Z,99812.81
2022-09-26T11:20:41.611Z,99813.53
2022-09-26T11:23:19.486Z,99812.59
2022-09-26T11:25:58.405Z,99807.09
2022-09-26T11:28:32.594Z,99809.91
2022-09-26T11:31:06.045Z,99785.84
2022-09-26T11:33:35.211Z,99790.72
2022-09-26T11:36:25.230Z,99781.72
2022-09-26T11:38:57.706Z,99778.09
2022-09-26T11:41:38.673Z,99770.16
2022-09-26T11:44:20.808Z,99776.78
2022-09-26T11:46:59.118Z,99766.31
2022-09-26T11:49:46.146Z,99775.38
2022-09-26T11:52:29.693Z,99770.69
2022-09-26T11:55:08.413Z,99765.91
2022-09-26T11:57:45.094Z,99764.03
2022-09-26T12:00:24.662Z,99768.88
2022-09-26T12:03:17.552Z,99765.38
2022-09-26T12:05:51.908Z,99769.16
2022-09-26T12:08:32.955Z,99767.03
2022-09-26T12:11:10.557Z,99763.94
2022-09-26T12:13:52.166Z,99773.41
2022-09-26T12:16:28.008Z,99762.16
2022-09-26T12:19:05.254Z,99752.63
2022-09-26T12:22:06.621Z,99752.75
2022-09-26T12:24:43.796Z,99745.25
2022-09-26T12:27:21.646Z,99745.91
2022-09-26T12:29:59.051Z,99733.28
2022-09-26T12:32:56.625Z,99734.97
2022-09-26T12:35:34.784Z,99742.16
2022-09-26T12:38:24.544Z,99718.91
2022-09-26T12:41:13.698Z,99726.72
2022-09-26T12:43:59.739Z,99721.59
2022-09-26T12:46:48.167Z,99724.81
2022-09-26T12:49:34.446Z,99714.97
2022-09-26T12:52:12.253Z,99713.19
2022-09-26T12:54:56.132Z,99713.28
2022-09-26T12:57:32.857Z,99713.75
2022-09-26T13:00:16.652Z,99709.47
2022-09-26T13:03:07.863Z,99708.72
2022-09-26T13:05:50.294Z,99712.50
2022-09-26T13:08:26.214Z,99711.59
2022-09-26T13:11:08.443Z,99700.50
2022-09-26T13:13:59.591Z,99710.31
2022-09-26T13:16:38.178Z,99700.44
2022-09-26T13:19:17.533Z,99694.91
2022-09-26T13:21:49.898Z,99702.25
2022-09-26T13:24:22.559Z,99700.75
2022-09-26T13:26:54.786Z,99687.38
2022-09-26T13:29:28.580Z,99692.69
2022-09-26T13:32:13.169Z,99682.16
2022-09-26T13:34:47.176Z,99680.59
2022-09-26T13:37:29.008Z,99678.97
2022-09-26T13:40:06.694Z,99679.94
2022-09-26T13:42:45.632Z,99674.72
2022-09-26T13:45:23.679Z,99677.38
2022-09-26T13:47:57.444Z,99666.59
2022-09-26T13:50:34.020Z,99670.91
2022-09-26T13:53:11.680Z,99667.38
2022-09-26T13:55:39.440Z,99662.09
2022-09-26T13:58:21.482Z,99654.97
2022-09-26T14:00:57.502Z,99653.91
2022-09-26T14:03:43.085Z,99655.59
2022-09-26T14:06:27.198Z,99646.88
2022-09-26T14:09:24.950Z,99647.72
2022-09-26T14:12:17.548Z,99642.22
2022-09-26T14:14:51.622Z,99643.06
2022-09-26T14:18:04.147Z,99643.16
2022-09-26T14:20:38.299Z,99649.09
2022-09-26T14:23:06.102Z,99629.47
2022-09-26T14:25:58.811Z,99627.63
2022-09-26T14:28:33.908Z,99614.28
2022-09-26T14:31:22.037Z,99615.06
2022-09-26T14:33:53.881Z,99616.06
2022-09-26T14:36:28.814Z,99604.72
2022-09-26T14:38:56.748Z,99604.81
2022-09-26T14:41:29.871Z,99613.81
2022-09-26T14:44:04.063Z,99597.78
2022-09-26T14:46:36.451Z,99598.72
2022-09-26T14:49:05.515Z,99595.22
2022-09-26T14:51:34.810Z,99595.25
2022-09-26T14:54:05.924Z,99590.78
2022-09-26T14:56:42.794Z,99579.13
2022-09-26T14:59:40.145Z,99590.78
2022-09-26T15:02:39.568Z,99587.34
2022-09-26T15:05:16.230Z,99576.66
2022-09-26T15:07:47.187Z,99573.13
2022-09-26T15:10:40.106Z,99560.63
2022-09-26T15:13:26.203Z,99560.06
2022-09-26T15:16:02.537Z,99559.47
2022-09-26T15:18:41.316Z,99554.22
2022-09-26T15:21:27.428Z,99559.75
2022-09-26T15:23:56.920Z,99552.59
2022-09-26T15:26:27.365Z,99549.22
2022-09-26T15:28:57.606Z,99553.88
2022-09-26T15:31:29.008Z,99553.94
2022-09-26T15:34:01.515Z,99552.22
2022-09-26T15:36:30.001Z,99538.78
2022-09-26T15:38:58.304Z,99547.81
2022-09-26T15:41:43.627Z,99543.38
2022-09-26T15:44:20.578Z,99537.91
2022-09-26T15:46:50.548Z,99522.69
2022-09-26T15:49:28.414Z,99526.19
2022-09-26T15:51:57.650Z,99525.25
2022-09-26T15:54:30.011Z,99519.00
2022-09-26T15:57:02.390Z,99524.31
2022-09-26T15:59:35.408Z,99522.44
2022-09-26T16:02:20.191Z,99520.63
2022-09-26T16:04:50.955Z,99515.44
2022-09-26T16:07:22.521Z,99510.16
2022-09-26T16:09:51.930Z,99506.53
2022-09-26T16:12:22.733Z,99510.09
2022-09-26T16:14:54.809Z,99502.03
2022-09-26T16:17:26.845Z,99502.88
2022-09-26T16:19:57.443Z,99505.41
2022-09-26T16:22:40.067Z,99502.53
2022-09-26T16:25:33.830Z,99493.63
2022-09-26T16:28:23.001Z,99496.38
2022-09-26T16:31:17.825Z,99491.19
2022-09-26T16:33:52.246Z,99484.03
2022-09-26T16:36:24.428Z,99479.78
2022-09-26T16:38:54.460Z,99481.56
2022-09-26T16:41:56.370Z,99474.56
2022-09-26T16:44:26.496Z,99472.00
2022-09-26T16:47:01.622Z,99470.69
2022-09-26T16:49:34.446Z,99470.63
2022-09-26T16:52:31.887Z,99466.31
2022-09-26T16:55:01.631Z,99460.09
2022-09-26T16:57:31.732Z,99462.78
2022-09-26T17:00:19.859Z,99456.22
2022-09-26T17:02:47.903Z,99459.22
2022-09-26T17:05:18.528Z,99460.09
2022-09-26T17:07:50.227Z,99445.81
2022-09-26T17:10:20.513Z,99442.88
2022-09-26T17:12:51.361Z,99445.75
2022-09-26T17:15:22.908Z,99434.41
2022-09-26T17:17:53.668Z,99440.81
2022-09-26T17:20:22.130Z,99435.38
2022-09-26T17:22:51.292Z,99432.84
2022-09-26T17:25:19.999Z,99436.50
2022-09-26T17:27:50.740Z,99427.72
2022-09-26T17:30:20.339Z,99421.41
2022-09-26T17:32:49.863Z,99415.06
2022-09-26T17:35:24.887Z,99418.66
2022-09-26T17:37:54.521Z,99416.88
2022-09-26T17:40:25.088Z,99410.75
2022-09-26T17:42:55.331Z,99416.31
2022-09-26T17:45:28.886Z,99404.53
2022-09-26T17:47:59.023Z,99401.72
2022-09-26T17:50:29.306Z,99398.25
2022-09-26T17:52:58.941Z,99402.72
2022-09-26T17:55:27.087Z,99410.75
2022-09-26T17:57:55.595Z,99405.31
2022-09-26T18:00:23.360Z,99412.50
2022-09-26T18:02:55.943Z,99401.91
2022-09-26T18:05:26.620Z,99400.16
2022-09-26T18:07:58.568Z,99402.72
2022-09-26T18:10:30.396Z,99399.09
2022-09-26T18:13:01.123Z,99396.41
2022-09-26T18:15:29.817Z,99393.88
2022-09-26T18:17:58.903Z,99394.72
2022-09-26T18:20:37.015Z,99391.25
2022-09-26T18:23:07.704Z,99389.63
2022-09-26T18:25:38.191Z,99377.16
2022-09-26T18:28:12.449Z,99375.38
2022-09-26T18:30:43.089Z,99382.50
2022-09-26T18:33:13.585Z,99386.94
2022-09-26T18:35:44.047Z,99386.09
2022-09-26T18:38:12.520Z,99396.91
2022-09-26T18:40:45.651Z,99388.81
2022-09-26T18:43:18.126Z,99398.78
2022-09-26T18:45:45.848Z,99395.31
2022-09-26T18:48:25.808Z,99392.50
2022-09-26T18:50:54.577Z,99389.81
2022-09-26T18:53:24.484Z,99385.44
2022-09-26T18:56:11.288Z,99391.66
2022-09-26T18:58:39.463Z,99389.13
2022-09-26T19:01:12.286Z,99393.56
2022-09-26T19:03:42.379Z,99391.66
2022-09-26T19:06:13.583Z,99389.81
2022-09-26T19:08:43.823Z,99388.94
2022-09-26T19:11:16.489Z,99395.13
2022-09-26T19:13:46.037Z,99389.81
2022-09-26T19:16:14.239Z,99386.19
2022-09-26T19:18:42.403Z,99393.50
2022-09-26T19:21:22.088Z,99387.31
2022-09-26T19:23:50.622Z,99388.19
2022-09-26T19:26:27.613Z,99388.06
2022-09-26T19:28:55.979Z,99380.09
2022-09-26T19:31:23.899Z,99379.25
2022-09-26T19:33:51.819Z,99379.22
2022-09-26T19:36:20.680Z,99380.22
2022-09-26T19:38:48.616Z,99382.84
2022-09-26T19:41:16.512Z,99379.22
2022-09-26T19:43:45.797Z,99372.19
2022-09-26T19:46:18.354Z,99374.84
2022-09-26T19:48:46.234Z,99369.50
2022-09-26T19:51:17.322Z,99377.69
2022-09-26T19:53:45.617Z,99374.09
2022-09-26T19:56:13.446Z,99362.56
2022-09-26T19:58:41.230Z,99359.06
2022-09-26T20:01:16.677Z,99359.97
2022-09-26T20:03:45.452Z,99369.72
2022-09-26T20:06:16.122Z,99370.81
2022-09-26T20:08:43.945Z,99375.34
2022-09-26T20:11:11.856Z,99372.59
2022-09-26T20:13:57.162Z,99363.75
2022-09-26T20:16:26.621Z,99365.47
2022-09-26T20:18:55.737Z,99357.50
2022-09-26T20:21:27.122Z,99362.00
2022-09-26T20:23:55.641Z,99355.78
2022-09-26T20:26:23.582Z,99347.84
2022-09-26T20:28:51.378Z,99356.00
2022-09-26T20:31:23.121Z,99348.16
2022-09-26T20:33:53.355Z,99347.16
2022-09-26T20:36:28.537Z,99355.94
2022-09-26T20:39:00.408Z,99345.13
2022-09-26T20:41:32.472Z,99351.34
2022-09-26T20:44:03.694Z,99345.00
2022-09-26T20:46:34.780Z,99345.78
2022-09-26T20:49:06.900Z,99345.66
2022-09-26T20:51:35.614Z,99342.06
2022-09-26T20:54:06.496Z,99342.13
2022-09-26T20:56:34.327Z,99337.56
2022-09-26T20:59:02.050Z,99334.81
2022-09-26T21:01:30.098Z,99339.25
2022-09-26T21:03:58.613Z,99345.53
2022-09-26T21:06:34.273Z,99331.28
2022-09-26T21:09:02.637Z,99338.34
2022-09-26T21:11:30.459Z,99334.78
2022-09-26T21:13:59.857Z,99330.28
2022-09-26T21:16:27.713Z,99335.72
2022-09-26T21:18:55.524Z,99331.22
2022-09-26T21:21:25.115Z,99337.47
2022-09-26T21:23:54.987Z,99334.81
2022-09-26T21:26:24.923Z,99329.44
2022-09-26T21:28:54.330Z,99326.75
2022-09-26T21:31:26.165Z,99325.84
2022-09-26T21:33:54.826Z,99330.41
2022-09-26T21:36:22.598Z,99331.22
2022-09-26T21:38:52.932Z,99325.72
2022-09-26T21:41:22.223Z,99327.56
2022-09-26T21:43:55.986Z,99329.31
2022-09-26T21:46:24.459Z,99321.25
2022-09-26T21:48:52.866Z,99323.88
2022-09-26T21:51:22.661Z,99324.69
2022-09-26T21:53:56.328Z,99331.09
2022-09-26T21:56:29.930Z,99330.22
2022-09-26T21:58:58.254Z,99326.75
2022-09-26T22:01:26.152Z,99317.03
2022-09-26T22:03:54.045Z,99317.88
2022-09-26T22:09:29.637Z,99327.16
2022-09-26T22:11:59.210Z,99320.31
2022-09-26T22:14:28.519Z,99322.28
2022-09-26T22:16:57.561Z,99323.97
2022-09-26T22:19:27.322Z,99329.22
2022-09-26T22:21:55.804Z,99324.97
2022-09-26T22:24:23.515Z,99320.44
2022-09-26T22:26:51.471Z,99326.72
2022-09-26T22:29:21.144Z,99330.50
2022-09-26T22:31:48.896Z,99336.84
2022-09-26T22:34:16.671Z,99328.81
2022-09-26T22:36:44.695Z,99337.81
2022-09-26T22:39:12.448Z,99335.53
2022-09-26T22:41:40.179Z,99342.00
2022-09-26T22:44:08.068Z,99334.97
2022-09-26T22:46:38.158Z,99342.25
2022-09-26T22:49:06.178Z,99341.59
2022-09-26T22:51:34.483Z,99339.09
2022-09-26T22:54:02.635Z,99346.22
2022-09-26T22:56:30.533Z,99349.50
2022-09-26T22:58:58.278Z,99344.22
2022-09-26T23:02:03.192Z,99344.09
2022-09-26T23:04:52.845Z,99336.31
2022-09-26T23:11:12.543Z,99349.94
2022-09-26T23:13:40.964Z,99354.28
2022-09-26T23:16:11.757Z,99349.69
2022-09-26T23:18:40.775Z,99352.59
2022-09-26T23:21:11.270Z,99348.88
2022-09-26T23:23:39.836Z,99355.03
2022-09-26T23:26:08.696Z,99352.41
2022-09-26T23:28:36.460Z,99352.38
2022-09-26T23:31:08.277Z,99349.94
2022-09-26T23:33:36.440Z,99350.31
2022-09-26T23:36:04.996Z,99352.34
2022-09-26T23:38:34.911Z,99353.25
2022-09-26T23:41:02.759Z,99356.69
2022-09-26T23:43:30.631Z,99351.44
2022-09-26T23:45:58.541Z,99353.31
2022-09-26T23:48:26.295Z,99354.09
2022-09-26T23:50:54.365Z,99355.97
2022-09-26T23:53:22.254Z,99364.00
2022-09-26T23:55:51.700Z,99356.97
2022-09-26T23:58:19.566Z,99363.00
